createdAt,value
2023-03-26T00:00:26.673Z,85.10
2023-03-26T00:05:29.569Z,84.80
2023-03-26T00:10:33.230Z,84.80
2023-03-26T00:15:37.983Z,85.10
2023-03-26T00:20:41.496Z,85.30
2023-03-26T00:25:46.079Z,85.40
2023-03-26T00:30:57.341Z,85.20
2023-03-26T00:36:03.887Z,85.00
2023-03-26T00:41:17.930Z,85.00
2023-03-26T00:46:21.149Z,84.80
2023-03-26T00:51:24.306Z,84.40
2023-03-26T00:56:27.388Z,84.20
2023-03-26T01:01:32.541Z,84.20
2023-03-26T01:06:37.840Z,84.50
2023-03-26T01:11:40.914Z,84.40
2023-03-26T01:16:52.652Z,84.30
2023-03-26T01:21:56.346Z,84.40
2023-03-26T01:27:12.161Z,84.10
2023-03-26T01:32:59.016Z,84.40
2023-03-26T01:38:23.337Z,84.70
2023-03-26T01:43:39.179Z,85.20
2023-03-26T01:48:47.280Z,85.40
2023-03-26T01:53:50.639Z,86.00
2023-03-26T01:59:29.484Z,86.00
2023-03-26T02:04:57.917Z,86.30
2023-03-26T02:10:29.583Z,86.70
2023-03-26T02:15:33.563Z,87.70
2023-03-26T02:20:37.779Z,87.90
2023-03-26T02:25:42.789Z,88.70
2023-03-26T02:30:46.036Z,88.80
2023-03-26T02:35:49.325Z,88.80
2023-03-26T02:40:54.519Z,88.90
2023-03-26T02:45:58.412Z,88.90
2023-03-26T02:51:03.051Z,88.90
2023-03-26T02:56:06.954Z,89.10
2023-03-26T03:01:09.995Z,89.30
2023-03-26T03:06:13.473Z,89.20
2023-03-26T03:11:24.633Z,89.20
2023-03-26T03:16:28.678Z,89.20
2023-03-26T03:21:31.784Z,89.40
2023-03-26T03:26:36.592Z,89.80
2023-03-26T03:31:41.334Z,90.00
2023-03-26T03:36:48.757Z,90.20
2023-03-26T03:41:51.733Z,90.20
2023-03-26T03:46:56.098Z,90.30
2023-03-26T03:51:59.091Z,90.50
2023-03-26T03:57:02.302Z,90.50
2023-03-26T04:02:05.402Z,90.60
2023-03-26T04:07:08.406Z,90.60
2023-03-26T04:12:11.515Z,90.70
2023-03-26T04:17:15.490Z,90.70
2023-03-26T04:22:19.480Z,90.90
2023-03-26T04:27:28.239Z,91.00
2023-03-26T04:32:34.324Z,91.00
2023-03-26T04:37:41.205Z,91.00
2023-03-26T04:42:46.944Z,91.00
2023-03-26T04:47:50.953Z,91.00
2023-03-26T04:52:59.537Z,91.00
2023-03-26T04:58:05.602Z,91.10
2023-03-26T05:03:12.415Z,91.20
2023-03-26T05:08:15.688Z,91.10
2023-03-26T05:13:18.671Z,91.10
2023-03-26T05:18:21.678Z,90.80
2023-03-26T05:23:24.718Z,90.60
2023-03-26T05:28:28.356Z,90.40
2023-03-26T05:33:31.437Z,90.10
2023-03-26T05:38:34.429Z,89.30
2023-03-26T05:43:37.439Z,88.20
2023-03-26T05:48:40.967Z,87.90
2023-03-26T05:53:44.129Z,87.30
2023-03-26T05:58:47.623Z,86.80
2023-03-26T06:03:51.628Z,86.40
2023-03-26T06:09:01.474Z,86.10
2023-03-26T06:14:05.894Z,84.70
2023-03-26T06:19:08.944Z,83.80
2023-03-26T06:24:12.474Z,83.10
2023-03-26T06:29:16.129Z,83.30
2023-03-26T06:34:19.076Z,82.50
2023-03-26T06:39:22.297Z,81.50
2023-03-26T06:44:25.499Z,80.20
2023-03-26T06:49:28.565Z,79.30
2023-03-26T06:54:31.522Z,78.70
2023-03-26T06:59:34.558Z,77.90
2023-03-26T07:04:38.084Z,78.00
2023-03-26T07:09:41.475Z,77.30
2023-03-26T07:14:44.431Z,76.30
2023-03-26T07:19:47.386Z,75.40
2023-03-26T07:24:51.105Z,74.30
2023-03-26T07:30:07.003Z,73.80
2023-03-26T07:35:41.091Z,72.30
2023-03-26T07:41:05.224Z,71.10
2023-03-26T07:46:12.891Z,71.30
2023-03-26T07:51:18.763Z,70.90
2023-03-26T07:56:39.946Z,68.60
2023-03-26T08:01:48.960Z,67.30
2023-03-26T08:07:22.974Z,67.80
2023-03-26T08:12:41.150Z,66.00
2023-03-26T08:17:59.939Z,65.30
2023-03-26T08:23:27.803Z,64.70
2023-03-26T08:28:48.720Z,66.00
2023-03-26T08:33:51.851Z,66.80
2023-03-26T08:38:54.948Z,67.60
2023-03-26T08:45:12.417Z,67.30
2023-03-26T08:50:38.192Z,67.20
2023-03-26T08:56:05.688Z,67.60
2023-03-26T09:01:56.071Z,67.20
2023-03-26T09:07:35.853Z,66.90
2023-03-26T09:13:25.708Z,64.60
2023-03-26T09:18:50.825Z,65.10
2023-03-26T09:24:10.927Z,64.30
2023-03-26T09:29:53.631Z,63.80
2023-03-26T09:35:13.244Z,63.90
2023-03-26T09:41:04.201Z,64.30
2023-03-26T09:46:38.014Z,65.10
2023-03-26T09:51:59.044Z,65.20
2023-03-26T09:57:29.242Z,65.20
2023-03-26T10:03:27.023Z,65.30
2023-03-26T10:08:56.598Z,64.60
2023-03-26T10:14:53.442Z,63.70
2023-03-26T10:20:37.844Z,61.90
2023-03-26T10:26:36.654Z,60.50
2023-03-26T10:32:24.803Z,57.50
2023-03-26T10:38:01.640Z,57.00
2023-03-26T10:44:05.187Z,57.60
2023-03-26T10:49:23.557Z,55.20
2023-03-26T10:54:56.328Z,52.50
2023-03-26T11:00:26.227Z,52.10
2023-03-26T11:05:47.438Z,52.90
2023-03-26T11:11:29.982Z,54.10
2023-03-26T11:16:59.088Z,54.80
2023-03-26T11:22:46.628Z,54.70
2023-03-26T11:28:32.752Z,55.60
2023-03-26T11:33:45.605Z,56.40
2023-03-26T11:38:53.178Z,53.00
2023-03-26T11:44:07.222Z,52.50
2023-03-26T11:49:16.850Z,52.20
2023-03-26T11:54:21.180Z,50.70
2023-03-26T11:59:45.289Z,50.60
2023-03-26T12:05:03.030Z,51.40
2023-03-26T12:10:21.569Z,51.90
2023-03-26T12:15:26.181Z,53.60
2023-03-26T12:20:36.708Z,52.90
2023-03-26T12:25:40.146Z,50.90
2023-03-26T12:31:02.491Z,48.90
2023-03-26T12:36:26.437Z,46.80
2023-03-26T12:44:44.554Z,47.90
2023-03-26T12:47:59.338Z,47.70
2023-03-26T12:53:15.390Z,48.00
2023-03-26T12:58:25.672Z,47.60
2023-03-26T13:03:42.186Z,48.60
2023-03-26T13:09:45.717Z,49.90
2023-03-26T13:15:07.954Z,50.30
2023-03-26T13:20:15.044Z,50.10
2023-03-26T13:25:53.995Z,48.50
2023-03-26T13:31:23.208Z,48.70
2023-03-26T13:36:57.471Z,42.80
2023-03-26T13:42:21.967Z,44.30
2023-03-26T13:47:31.451Z,43.80
2023-03-26T13:52:46.811Z,44.90
2023-03-26T13:58:03.492Z,45.10
2023-03-26T14:03:48.484Z,45.10
2023-03-26T14:09:02.944Z,44.70
2023-03-26T14:14:43.515Z,45.60
2023-03-26T14:20:22.872Z,45.50
2023-03-26T14:25:46.840Z,44.90
2023-03-26T14:31:30.103Z,43.10
2023-03-26T14:36:59.162Z,42.60
2023-03-26T14:42:18.094Z,43.80
2023-03-26T14:47:25.877Z,44.00
2023-03-26T14:52:48.910Z,44.20
2023-03-26T14:58:03.946Z,42.80
2023-03-26T15:03:10.070Z,41.90
2023-03-26T15:08:53.418Z,42.00
2023-03-26T15:14:29.847Z,42.90
2023-03-26T15:20:03.482Z,43.30
2023-03-26T15:25:45.766Z,44.40
2023-03-26T15:31:21.837Z,44.50
2023-03-26T15:37:10.812Z,43.80
2023-03-26T15:42:38.131Z,43.30
2023-03-26T15:47:48.609Z,43.40
2023-03-26T15:53:39.307Z,43.20
2023-03-26T15:59:13.374Z,43.10
2023-03-26T16:04:54.238Z,43.70
2023-03-26T16:11:07.889Z,44.40
2023-03-26T16:16:25.011Z,44.90
2023-03-26T16:21:32.737Z,45.20
2023-03-26T16:26:45.558Z,45.80
2023-03-26T16:32:09.929Z,46.70
2023-03-26T16:37:32.231Z,47.30
2023-03-26T16:42:41.696Z,47.90
2023-03-26T16:48:01.637Z,48.50
2023-03-26T16:53:29.862Z,48.90
2023-03-26T16:59:10.218Z,49.50
2023-03-26T17:04:24.877Z,50.00
2023-03-26T17:10:14.828Z,50.70
2023-03-26T17:16:13.580Z,51.00
2023-03-26T17:21:46.891Z,52.20
2023-03-26T17:27:17.363Z,52.40
2023-03-26T17:32:21.617Z,52.40
2023-03-26T17:37:26.439Z,52.70
2023-03-26T17:42:32.835Z,53.20
2023-03-26T17:48:16.172Z,53.60
2023-03-26T17:53:37.890Z,53.90
2023-03-26T17:58:52.725Z,54.70
2023-03-26T18:04:00.493Z,54.90
2023-03-26T18:09:45.143Z,55.10
2023-03-26T18:14:55.457Z,55.40
2023-03-26T18:20:10.034Z,55.60
2023-03-26T18:25:27.202Z,55.90
2023-03-26T18:30:30.516Z,56.20
2023-03-26T18:35:55.701Z,56.20
2023-03-26T18:40:59.330Z,56.30
2023-03-26T18:46:04.196Z,56.30
2023-03-26T18:51:07.966Z,56.70
2023-03-26T18:56:42.307Z,56.90
2023-03-26T19:01:47.493Z,57.10
2023-03-26T19:06:55.211Z,57.30
2023-03-26T19:12:16.408Z,57.40
2023-03-26T19:17:19.524Z,57.40
2023-03-26T19:22:24.763Z,57.30
2023-03-26T19:27:28.311Z,57.60
2023-03-26T19:32:35.139Z,57.90
2023-03-26T19:37:51.396Z,58.00
2023-03-26T19:42:54.145Z,58.20
2023-03-26T19:48:13.903Z,58.40
2023-03-26T19:53:29.988Z,58.60
2023-03-26T19:58:32.993Z,59.30
2023-03-26T20:03:43.127Z,59.00
2023-03-26T20:08:51.338Z,59.20
2023-03-26T20:13:54.265Z,59.60
2023-03-26T20:18:58.416Z,59.70
2023-03-26T20:24:01.950Z,60.10
2023-03-26T20:29:06.010Z,60.30
2023-03-26T20:34:20.103Z,60.40
2023-03-26T20:39:26.418Z,60.50
2023-03-26T20:44:30.896Z,60.80
2023-03-26T20:49:33.660Z,60.60
2023-03-26T20:54:37.028Z,60.70
2023-03-26T20:59:39.980Z,60.90
2023-03-26T21:04:42.990Z,61.00
2023-03-26T21:09:48.836Z,61.50
2023-03-26T21:14:52.336Z,62.40
2023-03-26T21:20:08.099Z,63.20
2023-03-26T21:25:32.322Z,68.70
2023-03-26T21:30:35.781Z,71.00
2023-03-26T21:35:39.515Z,73.10
2023-03-26T21:40:49.683Z,75.40
2023-03-26T21:46:00.611Z,77.60
2023-03-26T21:51:05.791Z,78.50
2023-03-26T21:56:33.409Z,79.30
2023-03-26T22:01:54.710Z,79.60
2023-03-26T22:07:18.761Z,79.70
2023-03-26T22:12:22.238Z,79.70
2023-03-26T22:17:27.795Z,79.80
2023-03-26T22:22:30.948Z,80.00
2023-03-26T22:27:34.740Z,80.70
2023-03-26T22:32:48.548Z,81.70
2023-03-26T22:37:51.950Z,82.20
2023-03-26T22:43:04.060Z,82.70
2023-03-26T22:48:07.579Z,83.40
2023-03-26T22:53:10.443Z,85.00
2023-03-26T22:58:13.391Z,85.70
2023-03-26T23:03:16.421Z,86.70
2023-03-26T23:08:20.551Z,88.00
2023-03-26T23:13:25.442Z,89.50
2023-03-26T23:18:29.247Z,90.30
2023-03-26T23:23:34.811Z,90.90
2023-03-26T23:28:38.515Z,91.30
2023-03-26T23:33:46.173Z,92.20
2023-03-26T23:38:51.621Z,92.60
2023-03-26T23:43:55.875Z,92.90
2023-03-26T23:49:03.599Z,93.30
2023-03-26T23:54:07.761Z,94.10
2023-03-26T23:59:10.522Z,94.40
